10:25
Airports
History
Links
Donate
Help keep this website running!
PayPal
Bitcoin
Information on this page is community maintained and may be outdated or inaccurate and is intended for reference only or PC simulator navigating.
Always use approved charts for navigating.
BGJN
Ilulissat/Jakobshavn
Ilulissat/Jakobshavn (BGJN)
Ilulissat, Kitaa, Greenland
(C)
Lat/Lng:69° 14' 39.98" N / 51° 3' 44" W
69.244438 / -51.062222
Elevation:95'ft 29mMSL
ID / ICAO:BGJN
Runways:1
Longest:(08-26) 836.9m 2,746ft Asphalt
Controlled:Yes
Distance To
Airport ID:
Nearby VORs <50NM
Nearby NDBs
METARUpdated 06-23-17 09:50 GMT
Altimeter: 29.91
Visibility: 6.2 statute miles
Wind: 2 knots (310°)
Temp: 5°c 41°f
Humidity: 75.3%

METAR: BGJN 230950Z 31002KT 9999 FEW035 05/01 Q1013

(Powered by phpweather)
Runway 08 / 26
Dimensions:836.9 x 29.9m 2746' x 98'ft
Surface:Asphalt
Edge Lights:Medium intensity
Runway 08 [A]Runway 26 [B]
Heading:035°TH 215°TH
Lat:
Lng:
69° 14' 28.77"N
51° 4' 6.13"W
69° 14' 51.18"N
51° 3' 21.86"W
ALS:MALSMALS
User Notes and Comments
Google Map
Nearby Airports
(C) Aasiaat 55.9 NM
BGAA SW 229°
(C) Qaarsut Ummannaq 109.9 NM
BGUQ NNW 339°
(C) Kangerlussuaq 154.5 NM
BGSF (WX) S 176°
(C) Sisimiut 172.7 NM
BGSS SSW 203°
(C) Maniitsoq 268.2 NM
BGMA S 190°
(C) Upernavik 269.9 NM
BGUK NNW 335°
4 QIKIQTARJUAQ 349.3 NM
CYVM WSW 250°
VFR Chart
Flight Planning at SkyVector.com